createdAt,value
2022-10-12T00:00:31.056Z,88.36
2022-10-12T00:02:57.810Z,87.61
2022-10-12T00:05:24.597Z,87.37
2022-10-12T00:07:51.321Z,88.12
2022-10-12T00:10:18.730Z,88.56
2022-10-12T00:12:45.554Z,88.93
2022-10-12T00:15:12.406Z,88.87
2022-10-12T00:17:39.598Z,89.43
2022-10-12T00:20:07.237Z,89.75
2022-10-12T00:22:34.214Z,90.29
2022-10-12T00:25:00.915Z,89.73
2022-10-12T00:27:27.741Z,90.51
2022-10-12T00:29:54.491Z,90.28
2022-10-12T00:32:21.355Z,90.72
2022-10-12T00:34:48.136Z,90.40
2022-10-12T00:37:14.924Z,90.16
2022-10-12T00:39:41.763Z,90.64
2022-10-12T00:42:12.088Z,91.06
2022-10-12T00:44:47.318Z,90.94
2022-10-12T00:47:37.431Z,90.83
2022-10-12T00:50:09.724Z,90.86
2022-10-12T00:53:08.924Z,91.67
2022-10-12T00:55:40.585Z,91.39
2022-10-12T00:58:08.957Z,91.46
2022-10-12T01:00:38.281Z,91.50
2022-10-12T01:03:08.047Z,91.54
2022-10-12T01:05:34.963Z,91.91
2022-10-12T01:08:02.872Z,92.39
2022-10-12T01:10:29.588Z,92.81
2022-10-12T01:12:56.547Z,93.29
2022-10-12T01:15:29.580Z,93.15
2022-10-12T01:18:02.354Z,93.26
2022-10-12T01:20:42.203Z,93.14
2022-10-12T01:23:28.924Z,93.40
2022-10-12T01:26:21.693Z,93.67
2022-10-12T01:28:51.331Z,93.85
2022-10-12T01:31:57.714Z,94.27
2022-10-12T01:34:44.757Z,94.58
2022-10-12T01:37:19.627Z,94.33
2022-10-12T01:39:54.725Z,94.34
2022-10-12T01:42:27.427Z,94.40
2022-10-12T01:45:08.742Z,94.40
2022-10-12T01:47:37.421Z,94.02
2022-10-12T01:50:08.186Z,93.86
2022-10-12T01:52:50.999Z,94.21
2022-10-12T01:55:41.732Z,94.46
2022-10-12T01:58:43.002Z,95.10
2022-10-12T02:01:30.381Z,94.40
2022-10-12T02:04:22.008Z,94.79
2022-10-12T02:06:54.005Z,94.60
2022-10-12T02:09:26.678Z,95.75
2022-10-12T02:11:58.518Z,95.90
2022-10-12T02:14:30.732Z,97.31
2022-10-12T02:17:01.920Z,96.98
2022-10-12T02:19:32.929Z,97.14
2022-10-12T02:22:03.101Z,97.09
2022-10-12T02:24:34.276Z,97.55
2022-10-12T02:27:01.936Z,97.55
2022-10-12T02:29:36.650Z,98.34
2022-10-12T02:32:20.551Z,97.46
2022-10-12T02:34:59.410Z,98.02
2022-10-12T02:37:46.723Z,97.75
2022-10-12T02:40:18.051Z,98.12
2022-10-12T02:43:09.393Z,98.56
2022-10-12T02:45:41.378Z,98.07
2022-10-12T02:48:11.953Z,98.11
2022-10-12T02:50:38.910Z,98.72
2022-10-12T02:53:06.147Z,98.74
2022-10-12T02:55:38.644Z,98.53
2022-10-12T02:58:05.467Z,98.79
2022-10-12T03:00:34.499Z,98.92
2022-10-12T03:03:01.224Z,99.15
2022-10-12T03:05:28.005Z,100.00
2022-10-12T03:07:54.736Z,100.00
2022-10-12T03:10:21.503Z,100.00
2022-10-12T03:12:50.326Z,100.00
2022-10-12T03:15:17.423Z,100.00
2022-10-12T03:17:44.214Z,100.00
2022-10-12T03:20:11.573Z,100.00
2022-10-12T03:22:38.324Z,100.00
2022-10-12T03:25:05.483Z,100.00
2022-10-12T03:27:32.248Z,100.00
2022-10-12T03:29:59.032Z,100.00
2022-10-12T03:32:26.269Z,100.00
2022-10-12T03:34:53.072Z,100.00
2022-10-12T03:37:19.824Z,100.00
2022-10-12T03:39:46.587Z,100.00
2022-10-12T03:42:14.101Z,100.00
2022-10-12T03:44:40.931Z,100.00
2022-10-12T03:47:07.685Z,100.00
2022-10-12T03:49:34.442Z,100.00
2022-10-12T03:52:01.205Z,100.00
2022-10-12T03:54:27.977Z,100.00
2022-10-12T03:56:54.725Z,100.00
2022-10-12T03:59:21.484Z,100.00
2022-10-12T04:01:48.443Z,100.00
2022-10-12T04:04:15.220Z,100.00
2022-10-12T04:06:42.094Z,100.00
2022-10-12T04:09:09.023Z,100.00
2022-10-12T04:11:35.825Z,100.00
2022-10-12T04:14:02.584Z,100.00
2022-10-12T04:16:31.123Z,100.00
2022-10-12T04:18:58.123Z,100.00
2022-10-12T04:21:26.107Z,100.00
2022-10-12T04:23:52.975Z,100.00
2022-10-12T04:26:19.758Z,100.00
2022-10-12T04:28:46.531Z,100.00
2022-10-12T04:31:13.384Z,100.00
2022-10-12T04:33:40.116Z,100.00
2022-10-12T04:36:07.741Z,100.00
2022-10-12T04:38:34.979Z,100.00
2022-10-12T04:41:01.782Z,100.00
2022-10-12T04:43:28.513Z,100.00
2022-10-12T04:45:59.907Z,100.00
2022-10-12T04:48:27.348Z,100.00
2022-10-12T04:50:54.196Z,100.00
2022-10-12T04:53:21.184Z,100.00
2022-10-12T04:55:47.981Z,100.00
2022-10-12T04:58:15.005Z,100.00
2022-10-12T05:00:41.843Z,100.00
2022-10-12T05:03:08.576Z,100.00
2022-10-12T05:05:36.258Z,100.00
2022-10-12T05:08:04.857Z,100.00
2022-10-12T05:10:31.835Z,100.00
2022-10-12T05:12:58.949Z,100.00
2022-10-12T05:15:26.378Z,100.00
2022-10-12T05:17:53.227Z,100.00
2022-10-12T05:20:20.094Z,100.00
2022-10-12T05:22:46.907Z,100.00
2022-10-12T05:25:13.857Z,100.00
2022-10-12T05:27:40.898Z,100.00
2022-10-12T05:30:09.169Z,100.00
2022-10-12T05:32:36.018Z,100.00
2022-10-12T05:35:03.313Z,100.00
2022-10-12T05:37:30.177Z,100.00
2022-10-12T05:39:57.161Z,100.00
2022-10-12T05:42:23.870Z,100.00
2022-10-12T05:44:50.586Z,100.00
2022-10-12T05:47:17.387Z,100.00
2022-10-12T05:49:44.274Z,100.00
2022-10-12T05:52:11.083Z,100.00
2022-10-12T05:54:37.877Z,100.00
2022-10-12T05:57:04.788Z,100.00
2022-10-12T05:59:31.570Z,100.00
2022-10-12T06:01:58.414Z,100.00
2022-10-12T06:04:25.230Z,100.00
2022-10-12T06:06:52.042Z,100.00
2022-10-12T06:09:19.204Z,100.00
2022-10-12T06:11:45.956Z,100.00
2022-10-12T06:14:12.801Z,100.00
2022-10-12T06:16:39.690Z,100.00
2022-10-12T06:19:06.606Z,100.00
2022-10-12T06:21:34.566Z,99.29
2022-10-12T06:24:01.766Z,96.36
2022-10-12T06:26:28.557Z,97.36
2022-10-12T06:28:55.566Z,93.96
2022-10-12T06:31:23.199Z,94.36
2022-10-12T06:33:51.095Z,94.09
2022-10-12T06:36:18.227Z,91.64
2022-10-12T06:38:45.121Z,89.25
2022-10-12T06:41:12.140Z,88.88
2022-10-12T06:43:38.937Z,87.01
2022-10-12T06:46:05.879Z,83.91
2022-10-12T06:48:32.638Z,81.69
2022-10-12T06:50:59.696Z,79.28
2022-10-12T06:53:28.893Z,75.70
2022-10-12T06:55:55.843Z,74.97
2022-10-12T06:58:22.645Z,73.88
2022-10-12T07:00:49.525Z,71.76
2022-10-12T07:03:17.771Z,69.28
2022-10-12T07:05:44.543Z,67.55
2022-10-12T07:08:11.349Z,65.96
2022-10-12T07:10:38.120Z,63.32
2022-10-12T07:13:05.145Z,60.75
2022-10-12T07:15:31.917Z,57.92
2022-10-12T07:17:58.757Z,57.52
2022-10-12T07:20:25.563Z,54.60
2022-10-12T07:22:53.394Z,53.22
2022-10-12T07:25:22.256Z,52.00
2022-10-12T07:27:49.742Z,50.09
2022-10-12T07:30:16.741Z,48.77
2022-10-12T07:32:44.676Z,47.97
2022-10-12T07:35:11.495Z,46.52
2022-10-12T07:37:38.717Z,46.20
2022-10-12T07:40:06.253Z,45.13
2022-10-12T07:42:33.186Z,44.79
2022-10-12T07:47:26.978Z,43.36
2022-10-12T07:49:53.727Z,42.96
2022-10-12T07:52:20.582Z,42.91
2022-10-12T07:54:47.409Z,41.67
2022-10-12T07:57:14.224Z,40.54
2022-10-12T07:59:40.986Z,39.86
2022-10-12T08:02:07.838Z,39.45
2022-10-12T08:04:34.626Z,39.81
2022-10-12T08:07:01.384Z,40.10
2022-10-12T08:09:28.364Z,40.25
2022-10-12T08:11:56.434Z,39.87
2022-10-12T08:14:23.487Z,37.43
2022-10-12T08:16:50.253Z,37.05
2022-10-12T08:19:19.164Z,35.92
2022-10-12T08:21:46.244Z,34.60
2022-10-12T08:24:14.413Z,34.80
2022-10-12T08:26:41.220Z,34.55
2022-10-12T08:29:08.597Z,33.50
2022-10-12T08:31:36.105Z,33.32
2022-10-12T08:34:03.967Z,32.68
2022-10-12T08:36:30.946Z,31.87
2022-10-12T08:38:58.073Z,31.27
2022-10-12T08:41:55.231Z,31.49
2022-10-12T08:44:43.331Z,30.58
2022-10-12T08:47:18.261Z,29.90
2022-10-12T08:49:49.953Z,29.81
2022-10-12T08:52:48.836Z,29.88
2022-10-12T08:55:23.618Z,29.20
2022-10-12T08:57:50.481Z,28.08
2022-10-12T09:00:18.108Z,27.98
2022-10-12T09:03:10.305Z,27.29
2022-10-12T09:06:38.511Z,27.22
2022-10-12T09:09:14.303Z,26.63
2022-10-12T09:12:08.583Z,26.31
2022-10-12T09:14:39.388Z,26.91
2022-10-12T09:17:23.872Z,26.95
2022-10-12T09:20:01.366Z,25.37
2022-10-12T09:22:30.445Z,25.25
2022-10-12T09:24:59.229Z,25.84
2022-10-12T09:27:30.883Z,25.11
2022-10-12T09:30:03.448Z,24.14
2022-10-12T09:32:48.774Z,23.83
2022-10-12T09:35:16.592Z,23.94
2022-10-12T09:37:49.510Z,23.71
2022-10-12T09:40:27.628Z,23.70
2022-10-12T09:42:56.011Z,23.20
2022-10-12T09:45:23.451Z,23.59
2022-10-12T09:48:16.865Z,22.91
2022-10-12T09:50:49.073Z,22.74
2022-10-12T09:53:41.426Z,21.15
2022-10-12T09:56:11.830Z,21.18
2022-10-12T09:58:49.843Z,21.87
2022-10-12T10:01:22.020Z,21.34
2022-10-12T10:04:08.830Z,21.78
2022-10-12T10:06:38.085Z,22.20
2022-10-12T10:09:06.201Z,22.94
2022-10-12T10:11:33.326Z,23.50
2022-10-12T10:14:01.810Z,23.00
2022-10-12T10:16:30.669Z,22.56
2022-10-12T10:19:00.792Z,22.67
2022-10-12T10:21:34.141Z,21.98
2022-10-12T10:24:03.749Z,21.66
2022-10-12T10:26:52.046Z,22.81
2022-10-12T10:29:21.776Z,23.10
2022-10-12T10:31:48.839Z,24.15
2022-10-12T10:34:18.577Z,25.52
2022-10-12T10:36:47.138Z,25.67
2022-10-12T10:39:47.364Z,27.16
2022-10-12T10:42:24.489Z,28.12
2022-10-12T10:44:56.525Z,27.93
2022-10-12T10:47:23.453Z,27.21
2022-10-12T10:49:55.918Z,25.83
2022-10-12T10:52:32.260Z,24.25
2022-10-12T10:55:48.481Z,24.48
2022-10-12T10:58:29.283Z,24.66
2022-10-12T11:01:02.264Z,25.65
2022-10-12T11:03:51.497Z,25.90
2022-10-12T11:06:42.222Z,27.24
2022-10-12T11:09:30.922Z,29.28
2022-10-12T11:12:06.851Z,30.59
2022-10-12T11:14:52.215Z,31.08
2022-10-12T11:17:27.015Z,31.16
2022-10-12T11:20:25.462Z,29.57
2022-10-12T11:23:01.804Z,28.56
2022-10-12T11:26:05.820Z,28.74
2022-10-12T11:28:33.688Z,29.34
2022-10-12T11:31:02.509Z,30.13
2022-10-12T11:33:54.385Z,31.13
2022-10-12T11:36:24.887Z,31.83
2022-10-12T11:38:57.012Z,32.75
2022-10-12T11:42:09.789Z,33.64
2022-10-12T11:44:43.712Z,34.13
2022-10-12T11:47:22.736Z,34.60
2022-10-12T11:50:01.804Z,35.71
2022-10-12T11:52:44.631Z,36.07
2022-10-12T11:55:29.962Z,36.48
2022-10-12T11:58:01.660Z,37.25
2022-10-12T12:00:54.282Z,38.72
2022-10-12T12:03:31.169Z,38.26
2022-10-12T12:06:30.040Z,35.33
2022-10-12T12:08:56.898Z,33.97
2022-10-12T12:11:29.507Z,34.00
2022-10-12T12:14:14.932Z,34.67
2022-10-12T12:16:44.796Z,34.85
2022-10-12T12:19:34.189Z,35.61
2022-10-12T12:22:13.240Z,35.94
2022-10-12T12:24:41.630Z,36.60
2022-10-12T12:27:33.716Z,37.25
2022-10-12T12:30:02.792Z,37.73
2022-10-12T12:32:44.743Z,39.25
2022-10-12T12:35:25.860Z,40.03
2022-10-12T12:38:14.238Z,40.69
2022-10-12T12:40:53.960Z,42.00
2022-10-12T12:43:29.624Z,42.13
2022-10-12T12:46:09.013Z,42.18
2022-10-12T12:48:55.992Z,42.16
2022-10-12T12:51:37.781Z,41.75
2022-10-12T12:54:21.792Z,40.99
2022-10-12T12:57:07.481Z,40.42
2022-10-12T12:59:49.175Z,39.04
2022-10-12T13:02:50.633Z,38.46
2022-10-12T13:05:34.602Z,38.28
2022-10-12T13:08:07.658Z,38.65
2022-10-12T13:11:04.427Z,38.26
2022-10-12T13:13:49.861Z,37.62
2022-10-12T13:19:35.599Z,37.40
2022-10-12T13:22:06.638Z,37.58
2022-10-12T13:24:46.826Z,38.62
2022-10-12T13:27:18.008Z,38.73
2022-10-12T13:30:04.474Z,38.88
2022-10-12T13:32:40.509Z,39.59
2022-10-12T13:35:29.380Z,40.83
2022-10-12T13:38:19.887Z,41.29
2022-10-12T13:40:53.701Z,41.98
2022-10-12T13:43:42.193Z,42.77
2022-10-12T13:46:34.045Z,43.12
2022-10-12T13:49:02.063Z,43.84
2022-10-12T13:51:31.011Z,44.10
2022-10-12T13:53:58.042Z,44.38
2022-10-12T13:56:30.268Z,45.35
2022-10-12T13:59:00.513Z,45.70
2022-10-12T14:01:27.641Z,45.47
2022-10-12T14:04:05.669Z,45.91
2022-10-12T14:06:35.502Z,46.15
2022-10-12T14:09:17.609Z,46.77
2022-10-12T14:11:45.469Z,47.35
2022-10-12T14:14:20.662Z,48.11
2022-10-12T14:16:49.973Z,48.91
2022-10-12T14:19:31.248Z,49.64
2022-10-12T14:22:00.436Z,49.72
2022-10-12T14:24:27.340Z,49.60
2022-10-12T14:27:05.981Z,48.71
2022-10-12T14:29:40.542Z,48.78
2022-10-12T14:32:10.158Z,48.35
2022-10-12T14:34:41.860Z,48.17
2022-10-12T14:37:08.684Z,47.85
2022-10-12T14:39:36.661Z,48.05
2022-10-12T14:42:19.222Z,48.41
2022-10-12T14:44:46.070Z,48.89
2022-10-12T14:47:39.814Z,49.54
2022-10-12T14:50:09.774Z,49.98
2022-10-12T14:52:45.220Z,50.92
2022-10-12T14:55:18.090Z,51.35
2022-10-12T14:57:45.547Z,51.69
2022-10-12T15:00:28.145Z,52.47
2022-10-12T15:02:55.071Z,53.37
2022-10-12T15:05:24.477Z,54.37
2022-10-12T15:07:52.076Z,55.48
2022-10-12T15:10:22.627Z,56.31
2022-10-12T15:12:50.267Z,56.96
2022-10-12T15:15:29.001Z,57.64
2022-10-12T15:17:56.848Z,57.74
2022-10-12T15:20:23.859Z,58.01
2022-10-12T15:22:50.730Z,58.86
2022-10-12T15:25:37.709Z,59.89
2022-10-12T15:28:04.726Z,59.86
2022-10-12T15:30:32.418Z,60.38
2022-10-12T15:32:59.437Z,61.58
2022-10-12T15:35:29.197Z,61.73
2022-10-12T15:37:56.446Z,61.73
2022-10-12T15:40:24.175Z,62.21
2022-10-12T15:42:51.025Z,63.35
2022-10-12T15:45:22.483Z,64.51
2022-10-12T15:47:50.717Z,64.52
2022-10-12T15:50:20.359Z,65.72
2022-10-12T15:52:47.452Z,66.55
2022-10-12T15:55:29.477Z,67.99
2022-10-12T15:57:57.056Z,67.64
2022-10-12T16:00:27.258Z,68.12
2022-10-12T16:02:55.540Z,69.17
2022-10-12T16:05:25.576Z,69.81
2022-10-12T16:07:52.742Z,70.48
2022-10-12T16:10:23.476Z,70.70
2022-10-12T16:12:52.526Z,71.81
2022-10-12T16:15:31.599Z,71.88
2022-10-12T16:18:02.465Z,72.06
2022-10-12T16:20:31.348Z,72.38
2022-10-12T16:22:59.671Z,72.09
2022-10-12T16:25:27.661Z,72.66
2022-10-12T16:27:56.427Z,73.02
2022-10-12T16:30:24.356Z,73.96
2022-10-12T16:32:51.613Z,74.16
2022-10-12T16:35:18.599Z,74.83
2022-10-12T16:37:45.374Z,74.80
2022-10-12T16:40:12.616Z,74.84
2022-10-12T16:42:39.871Z,75.45
2022-10-12T16:45:07.367Z,75.66
2022-10-12T16:47:37.629Z,76.01
2022-10-12T16:50:06.997Z,76.58
2022-10-12T16:52:33.956Z,77.78
2022-10-12T16:55:00.890Z,77.94
2022-10-12T16:57:27.773Z,78.22
2022-10-12T16:59:54.766Z,79.04
2022-10-12T17:02:21.642Z,79.80
2022-10-12T17:04:48.482Z,79.82
2022-10-12T17:07:15.728Z,79.86
2022-10-12T17:09:42.993Z,80.96
2022-10-12T17:12:09.843Z,81.43
2022-10-12T17:14:36.702Z,81.68
2022-10-12T17:17:04.206Z,81.85
2022-10-12T17:19:40.073Z,81.82
2022-10-12T17:22:09.793Z,82.30
2022-10-12T17:24:38.763Z,82.52
2022-10-12T17:27:08.082Z,82.86
2022-10-12T17:29:40.237Z,83.16
2022-10-12T17:32:08.432Z,82.95
2022-10-12T17:34:43.499Z,83.17
2022-10-12T17:37:13.812Z,82.96
2022-10-12T17:39:44.078Z,82.63
2022-10-12T17:42:11.591Z,82.27
2022-10-12T17:44:38.399Z,81.83
2022-10-12T17:47:05.182Z,81.71
2022-10-12T17:49:32.274Z,82.11
2022-10-12T17:51:59.097Z,82.35
2022-10-12T17:54:26.813Z,82.61
2022-10-12T17:56:56.907Z,82.86
2022-10-12T17:59:24.251Z,83.41
2022-10-12T18:01:52.069Z,83.32
2022-10-12T18:04:20.055Z,83.85
2022-10-12T18:06:46.927Z,83.42
2022-10-12T18:09:13.804Z,83.52
2022-10-12T18:11:40.684Z,84.48
2022-10-12T18:14:09.586Z,84.65
2022-10-12T18:16:36.846Z,85.25
2022-10-12T18:19:05.291Z,86.23
2022-10-12T18:21:33.260Z,86.58
2022-10-12T18:24:12.266Z,86.65
2022-10-12T18:26:43.351Z,86.50
2022-10-12T18:29:10.230Z,86.38
2022-10-12T18:31:37.139Z,86.23
2022-10-12T18:34:04.889Z,86.48
2022-10-12T18:36:31.727Z,86.49
2022-10-12T18:39:01.368Z,87.44
2022-10-12T18:41:28.570Z,87.04
2022-10-12T18:43:59.529Z,89.62
2022-10-12T18:46:28.441Z,90.39
2022-10-12T18:48:56.045Z,88.89
2022-10-12T18:51:29.482Z,88.14
2022-10-12T18:53:57.193Z,88.14
2022-10-12T18:56:26.047Z,87.95
2022-10-12T18:58:53.190Z,88.21
2022-10-12T19:01:22.767Z,88.02
2022-10-12T19:03:49.630Z,88.12
2022-10-12T19:06:18.949Z,88.21
2022-10-12T19:08:47.983Z,88.62
2022-10-12T19:11:17.550Z,89.06
2022-10-12T19:13:50.731Z,89.47
2022-10-12T19:16:18.035Z,89.94
2022-10-12T19:18:44.890Z,89.63
2022-10-12T19:21:14.620Z,89.56
2022-10-12T19:23:42.283Z,89.69
2022-10-12T19:26:15.221Z,89.56
2022-10-12T19:28:42.103Z,90.47
2022-10-12T19:31:14.290Z,90.82
2022-10-12T19:33:42.391Z,90.23
2022-10-12T19:36:10.829Z,89.77
2022-10-12T19:38:38.466Z,89.42
2022-10-12T19:41:06.491Z,90.00
2022-10-12T19:43:36.276Z,90.45
2022-10-12T19:46:07.861Z,90.70
2022-10-12T19:48:35.839Z,90.81
2022-10-12T19:51:10.094Z,91.02
2022-10-12T19:53:37.685Z,91.61
2022-10-12T19:56:07.700Z,91.50
2022-10-12T19:58:34.986Z,91.60
2022-10-12T20:01:12.939Z,91.74
2022-10-12T20:03:44.093Z,92.42
2022-10-12T20:06:13.682Z,92.54
2022-10-12T20:08:42.084Z,92.18
2022-10-12T20:11:13.089Z,92.60
2022-10-12T20:13:42.505Z,92.52
2022-10-12T20:16:09.335Z,92.47
2022-10-12T20:18:36.646Z,92.24
2022-10-12T20:21:08.616Z,92.25
2022-10-12T20:23:36.421Z,91.80
2022-10-12T20:26:09.542Z,91.42
2022-10-12T20:28:37.921Z,91.31
2022-10-12T20:31:05.882Z,91.65
2022-10-12T20:33:34.563Z,91.36
2022-10-12T20:36:01.418Z,91.23
2022-10-12T20:38:28.562Z,91.10
2022-10-12T20:41:07.145Z,90.77
2022-10-12T20:43:34.396Z,91.06
2022-10-12T20:46:05.336Z,90.65
2022-10-12T20:48:32.823Z,90.72
2022-10-12T20:50:59.749Z,90.76
2022-10-12T20:53:26.519Z,90.50
2022-10-12T20:55:54.825Z,90.72
2022-10-12T20:58:26.947Z,90.77
2022-10-12T21:01:09.549Z,91.21
2022-10-12T21:03:37.005Z,91.35
2022-10-12T21:06:12.990Z,91.38
2022-10-12T21:08:40.077Z,91.07
2022-10-12T21:11:06.928Z,91.71
2022-10-12T21:13:39.192Z,92.58
2022-10-12T21:16:06.315Z,93.16
2022-10-12T21:18:37.765Z,93.37
2022-10-12T21:21:16.717Z,92.84
2022-10-12T21:23:45.309Z,92.25
2022-10-12T21:26:14.551Z,92.85
2022-10-12T21:28:41.428Z,93.30
2022-10-12T21:31:08.756Z,93.17
2022-10-12T21:33:39.095Z,93.30
2022-10-12T21:36:27.084Z,93.11
2022-10-12T21:38:54.051Z,93.17
2022-10-12T21:41:23.996Z,92.79
2022-10-12T21:43:51.899Z,93.29
2022-10-12T21:46:27.709Z,93.82
2022-10-12T21:48:55.036Z,94.26
2022-10-12T21:51:23.497Z,94.33
2022-10-12T21:53:50.741Z,94.48
2022-10-12T21:56:22.895Z,94.14
2022-10-12T21:58:50.599Z,93.78
2022-10-12T22:01:22.658Z,93.35
2022-10-12T22:03:59.652Z,92.47
2022-10-12T22:06:27.906Z,92.18
2022-10-12T22:09:16.938Z,91.50
2022-10-12T22:11:44.400Z,92.04
2022-10-12T22:14:17.465Z,91.72
2022-10-12T22:16:44.957Z,92.88
2022-10-12T22:19:15.404Z,92.84
2022-10-12T22:21:42.348Z,92.99
2022-10-12T22:24:09.467Z,93.08
2022-10-12T22:26:36.782Z,93.06
2022-10-12T22:29:07.482Z,93.23
2022-10-12T22:31:35.446Z,93.27
2022-10-12T22:34:02.445Z,93.46
2022-10-12T22:36:33.211Z,93.47
2022-10-12T22:39:02.986Z,93.97
2022-10-12T22:41:29.865Z,94.97
2022-10-12T22:43:57.070Z,95.33
2022-10-12T22:46:25.519Z,95.42
2022-10-12T22:48:53.652Z,95.18
2022-10-12T22:51:27.155Z,94.59
2022-10-12T22:53:54.035Z,94.31
2022-10-12T22:56:20.943Z,95.07
2022-10-12T22:58:49.046Z,95.56
2022-10-12T23:01:17.698Z,95.55
2022-10-12T23:03:45.574Z,96.18
2022-10-12T23:06:15.305Z,96.14
2022-10-12T23:08:42.219Z,95.56
2022-10-12T23:11:12.210Z,95.22
2022-10-12T23:13:41.117Z,95.31
2022-10-12T23:16:13.905Z,95.31
2022-10-12T23:18:40.886Z,95.34
2022-10-12T23:21:11.166Z,95.29
2022-10-12T23:23:39.993Z,96.09
2022-10-12T23:26:10.065Z,96.59
2022-10-12T23:28:37.102Z,96.58
2022-10-12T23:31:08.470Z,96.17
2022-10-12T23:33:35.511Z,96.04
2022-10-12T23:36:11.834Z,96.49
2022-10-12T23:38:40.749Z,96.80
2022-10-12T23:41:08.563Z,97.22
2022-10-12T23:43:36.169Z,97.31
2022-10-12T23:46:04.826Z,97.79
2022-10-12T23:48:32.174Z,97.84
2022-10-12T23:51:00.144Z,97.85
2022-10-12T23:53:27.459Z,97.90
2022-10-12T23:55:54.294Z,97.78
2022-10-12T23:58:21.238Z,97.45
